sensor_id;sensor_type;location;lat;lon;timestamp;P1;durP1;ratioP1;P2;durP2;ratioP2
56181;SDS011;51963;46.052;14.544;2024-01-30T00:02:21;80.63;;;33.03;;
56181;SDS011;51963;46.052;14.544;2024-01-30T00:04:47;78.40;;;32.55;;
56181;SDS011;51963;46.052;14.544;2024-01-30T00:07:12;72.63;;;32.97;;
56181;SDS011;51963;46.052;14.544;2024-01-30T00:09:38;76.53;;;31.73;;
56181;SDS011;51963;46.052;14.544;2024-01-30T00:12:07;68.28;;;31.50;;
56181;SDS011;51963;46.052;14.544;2024-01-30T00:14:32;82.90;;;34.60;;
56181;SDS011;51963;46.052;14.544;2024-01-30T00:16:58;70.65;;;32.25;;
56181;SDS011;51963;46.052;14.544;2024-01-30T00:19:24;75.85;;;32.85;;
56181;SDS011;51963;46.052;14.544;2024-01-30T00:21:49;69.55;;;31.73;;
56181;SDS011;51963;46.052;14.544;2024-01-30T00:24:15;79.50;;;32.22;;
56181;SDS011;51963;46.052;14.544;2024-01-30T00:26:41;71.13;;;32.63;;
56181;SDS011;51963;46.052;14.544;2024-01-30T00:29:06;73.05;;;31.63;;
56181;SDS011;51963;46.052;14.544;2024-01-30T00:31:32;72.45;;;31.95;;
56181;SDS011;51963;46.052;14.544;2024-01-30T00:33:58;69.97;;;31.90;;
56181;SDS011;51963;46.052;14.544;2024-01-30T00:36:23;68.78;;;31.30;;
56181;SDS011;51963;46.052;14.544;2024-01-30T00:38:49;76.80;;;31.48;;
56181;SDS011;51963;46.052;14.544;2024-01-30T00:41:17;74.93;;;31.70;;
56181;SDS011;51963;46.052;14.544;2024-01-30T00:43:43;69.22;;;30.42;;
56181;SDS011;51963;46.052;14.544;2024-01-30T00:46:08;72.30;;;31.10;;
56181;SDS011;51963;46.052;14.544;2024-01-30T00:48:34;74.45;;;31.02;;
56181;SDS011;51963;46.052;14.544;2024-01-30T00:51:00;70.85;;;31.05;;
56181;SDS011;51963;46.052;14.544;2024-01-30T00:53:26;72.95;;;29.95;;
56181;SDS011;51963;46.052;14.544;2024-01-30T00:55:51;65.88;;;29.25;;
56181;SDS011;51963;46.052;14.544;2024-01-30T00:58:17;61.13;;;28.55;;
56181;SDS011;51963;46.052;14.544;2024-01-30T01:00:44;64.85;;;28.90;;
56181;SDS011;51963;46.052;14.544;2024-01-30T01:03:10;72.78;;;28.92;;
56181;SDS011;51963;46.052;14.544;2024-01-30T01:05:35;66.97;;;28.23;;
56181;SDS011;51963;46.052;14.544;2024-01-30T01:08:01;59.67;;;28.90;;
56181;SDS011;51963;46.052;14.544;2024-01-30T01:10:27;68.35;;;30.48;;
56181;SDS011;51963;46.052;14.544;2024-01-30T01:12:53;69.45;;;29.65;;
56181;SDS011;51963;46.052;14.544;2024-01-30T01:15:19;66.88;;;28.52;;
56181;SDS011;51963;46.052;14.544;2024-01-30T01:17:44;62.95;;;27.13;;
56181;SDS011;51963;46.052;14.544;2024-01-30T01:20:10;63.42;;;26.95;;
56181;SDS011;51963;46.052;14.544;2024-01-30T01:22:37;65.10;;;27.65;;
56181;SDS011;51963;46.052;14.544;2024-01-30T01:25:04;62.83;;;27.42;;
56181;SDS011;51963;46.052;14.544;2024-01-30T01:29:59;62.35;;;25.98;;
56181;SDS011;51963;46.052;14.544;2024-01-30T01:32:25;56.17;;;26.50;;
56181;SDS011;51963;46.052;14.544;2024-01-30T01:34:51;62.28;;;28.75;;
56181;SDS011;51963;46.052;14.544;2024-01-30T01:37:17;60.83;;;26.77;;
56181;SDS011;51963;46.052;14.544;2024-01-30T01:39:43;64.60;;;27.65;;
56181;SDS011;51963;46.052;14.544;2024-01-30T01:42:08;64.78;;;26.45;;
56181;SDS011;51963;46.052;14.544;2024-01-30T01:44:34;72.80;;;29.75;;
56181;SDS011;51963;46.052;14.544;2024-01-30T01:47:00;60.17;;;27.65;;
56181;SDS011;51963;46.052;14.544;2024-01-30T01:49:26;62.90;;;26.80;;
56181;SDS011;51963;46.052;14.544;2024-01-30T01:51:53;58.60;;;26.20;;
56181;SDS011;51963;46.052;14.544;2024-01-30T01:54:21;59.53;;;25.52;;
56181;SDS011;51963;46.052;14.544;2024-01-30T01:56:49;60.28;;;25.73;;
56181;SDS011;51963;46.052;14.544;2024-01-30T01:59:16;71.63;;;27.90;;
56181;SDS011;51963;46.052;14.544;2024-01-30T02:01:43;62.95;;;26.73;;
56181;SDS011;51963;46.052;14.544;2024-01-30T02:04:10;70.25;;;28.35;;
56181;SDS011;51963;46.052;14.544;2024-01-30T02:06:36;57.50;;;27.05;;
56181;SDS011;51963;46.052;14.544;2024-01-30T02:09:03;62.60;;;27.58;;
56181;SDS011;51963;46.052;14.544;2024-01-30T02:11:29;66.18;;;27.70;;
56181;SDS011;51963;46.052;14.544;2024-01-30T02:13:56;64.68;;;27.83;;
56181;SDS011;51963;46.052;14.544;2024-01-30T02:16:21;63.90;;;27.33;;
56181;SDS011;51963;46.052;14.544;2024-01-30T02:18:47;61.45;;;25.55;;
56181;SDS011;51963;46.052;14.544;2024-01-30T02:21:17;60.08;;;26.13;;
56181;SDS011;51963;46.052;14.544;2024-01-30T02:23:44;60.50;;;27.15;;
56181;SDS011;51963;46.052;14.544;2024-01-30T02:26:12;60.55;;;26.40;;
56181;SDS011;51963;46.052;14.544;2024-01-30T02:28:38;63.10;;;27.13;;
56181;SDS011;51963;46.052;14.544;2024-01-30T02:31:04;57.80;;;25.70;;
56181;SDS011;51963;46.052;14.544;2024-01-30T02:33:30;65.50;;;27.13;;
56181;SDS011;51963;46.052;14.544;2024-01-30T02:35:55;64.10;;;27.73;;
56181;SDS011;51963;46.052;14.544;2024-01-30T02:38:21;63.95;;;27.80;;
56181;SDS011;51963;46.052;14.544;2024-01-30T02:40:51;73.35;;;27.92;;
56181;SDS011;51963;46.052;14.544;2024-01-30T02:43:19;58.33;;;26.15;;
56181;SDS011;51963;46.052;14.544;2024-01-30T02:45:44;60.17;;;27.13;;
56181;SDS011;51963;46.052;14.544;2024-01-30T02:48:13;67.93;;;28.45;;
56181;SDS011;51963;46.052;14.544;2024-01-30T02:50:39;71.32;;;28.65;;
56181;SDS011;51963;46.052;14.544;2024-01-30T02:53:05;72.47;;;28.95;;
56181;SDS011;51963;46.052;14.544;2024-01-30T02:55:30;67.15;;;27.20;;
56181;SDS011;51963;46.052;14.544;2024-01-30T02:57:56;64.70;;;27.45;;
56181;SDS011;51963;46.052;14.544;2024-01-30T03:00:24;67.37;;;28.70;;
56181;SDS011;51963;46.052;14.544;2024-01-30T03:02:49;64.32;;;27.73;;
56181;SDS011;51963;46.052;14.544;2024-01-30T03:05:15;64.72;;;26.95;;
56181;SDS011;51963;46.052;14.544;2024-01-30T03:07:41;69.22;;;27.70;;
56181;SDS011;51963;46.052;14.544;2024-01-30T03:10:06;70.75;;;27.73;;
56181;SDS011;51963;46.052;14.544;2024-01-30T03:12:32;66.20;;;27.80;;
56181;SDS011;51963;46.052;14.544;2024-01-30T03:14:58;60.78;;;26.42;;
56181;SDS011;51963;46.052;14.544;2024-01-30T03:19:52;59.78;;;25.67;;
56181;SDS011;51963;46.052;14.544;2024-01-30T03:22:18;60.53;;;25.00;;
56181;SDS011;51963;46.052;14.544;2024-01-30T03:24:44;60.45;;;25.83;;
56181;SDS011;51963;46.052;14.544;2024-01-30T03:27:13;65.22;;;26.30;;
56181;SDS011;51963;46.052;14.544;2024-01-30T03:29:44;66.28;;;26.13;;
56181;SDS011;51963;46.052;14.544;2024-01-30T03:32:10;59.22;;;25.95;;
56181;SDS011;51963;46.052;14.544;2024-01-30T03:34:36;57.45;;;25.90;;
56181;SDS011;51963;46.052;14.544;2024-01-30T03:37:01;61.60;;;27.10;;
56181;SDS011;51963;46.052;14.544;2024-01-30T03:39:27;58.75;;;25.88;;
56181;SDS011;51963;46.052;14.544;2024-01-30T03:41:53;62.05;;;27.42;;
56181;SDS011;51963;46.052;14.544;2024-01-30T03:44:18;62.10;;;27.63;;
56181;SDS011;51963;46.052;14.544;2024-01-30T03:46:44;63.05;;;27.65;;
56181;SDS011;51963;46.052;14.544;2024-01-30T03:49:10;75.82;;;30.33;;
56181;SDS011;51963;46.052;14.544;2024-01-30T03:51:36;70.20;;;29.48;;
56181;SDS011;51963;46.052;14.544;2024-01-30T03:54:02;73.18;;;30.33;;
56181;SDS011;51963;46.052;14.544;2024-01-30T03:56:27;71.80;;;30.70;;
56181;SDS011;51963;46.052;14.544;2024-01-30T03:58:53;79.95;;;31.42;;
56181;SDS011;51963;46.052;14.544;2024-01-30T04:01:19;72.53;;;29.60;;
56181;SDS011;51963;46.052;14.544;2024-01-30T04:03:44;74.97;;;30.40;;
56181;SDS011;51963;46.052;14.544;2024-01-30T04:06:10;74.70;;;29.17;;
56181;SDS011;51963;46.052;14.544;2024-01-30T04:08:36;77.50;;;31.02;;
56181;SDS011;51963;46.052;14.544;2024-01-30T04:11:05;69.13;;;30.10;;
56181;SDS011;51963;46.052;14.544;2024-01-30T04:13:32;78.90;;;30.98;;
56181;SDS011;51963;46.052;14.544;2024-01-30T04:16:01;72.70;;;27.98;;
56181;SDS011;51963;46.052;14.544;2024-01-30T04:18:28;64.97;;;27.10;;
56181;SDS011;51963;46.052;14.544;2024-01-30T04:20:53;62.95;;;26.52;;
56181;SDS011;51963;46.052;14.544;2024-01-30T04:23:19;66.68;;;28.27;;
56181;SDS011;51963;46.052;14.544;2024-01-30T04:25:45;69.28;;;28.63;;
56181;SDS011;51963;46.052;14.544;2024-01-30T04:28:11;67.85;;;28.13;;
56181;SDS011;51963;46.052;14.544;2024-01-30T04:30:39;65.45;;;29.92;;
56181;SDS011;51963;46.052;14.544;2024-01-30T04:33:05;86.93;;;29.70;;
56181;SDS011;51963;46.052;14.544;2024-01-30T04:35:30;67.50;;;28.23;;
56181;SDS011;51963;46.052;14.544;2024-01-30T04:37:56;67.47;;;27.15;;
56181;SDS011;51963;46.052;14.544;2024-01-30T04:40:22;66.30;;;28.38;;
56181;SDS011;51963;46.052;14.544;2024-01-30T04:42:48;61.50;;;26.35;;
56181;SDS011;51963;46.052;14.544;2024-01-30T04:45:13;59.67;;;26.67;;
56181;SDS011;51963;46.052;14.544;2024-01-30T04:47:39;66.53;;;26.77;;
56181;SDS011;51963;46.052;14.544;2024-01-30T04:50:06;63.05;;;26.63;;
56181;SDS011;51963;46.052;14.544;2024-01-30T04:52:32;62.75;;;27.85;;
56181;SDS011;51963;46.052;14.544;2024-01-30T04:54:58;63.35;;;25.92;;
56181;SDS011;51963;46.052;14.544;2024-01-30T04:57:24;61.90;;;26.48;;
56181;SDS011;51963;46.052;14.544;2024-01-30T04:59:49;57.22;;;25.35;;
56181;SDS011;51963;46.052;14.544;2024-01-30T05:02:15;60.45;;;26.05;;
56181;SDS011;51963;46.052;14.544;2024-01-30T05:04:41;59.80;;;25.48;;
56181;SDS011;51963;46.052;14.544;2024-01-30T05:07:07;53.70;;;24.45;;
56181;SDS011;51963;46.052;14.544;2024-01-30T05:09:32;65.22;;;28.00;;
56181;SDS011;51963;46.052;14.544;2024-01-30T05:11:58;64.57;;;26.80;;
56181;SDS011;51963;46.052;14.544;2024-01-30T05:14:24;64.07;;;26.65;;
56181;SDS011;51963;46.052;14.544;2024-01-30T05:16:50;59.10;;;26.80;;
56181;SDS011;51963;46.052;14.544;2024-01-30T05:19:15;70.88;;;26.83;;
56181;SDS011;51963;46.052;14.544;2024-01-30T05:21:42;71.43;;;28.55;;
56181;SDS011;51963;46.052;14.544;2024-01-30T05:24:08;64.80;;;27.10;;
56181;SDS011;51963;46.052;14.544;2024-01-30T05:26:35;59.58;;;26.58;;
56181;SDS011;51963;46.052;14.544;2024-01-30T05:29:01;64.40;;;27.02;;
56181;SDS011;51963;46.052;14.544;2024-01-30T05:31:27;66.20;;;27.55;;
56181;SDS011;51963;46.052;14.544;2024-01-30T05:33:54;55.95;;;24.38;;
56181;SDS011;51963;46.052;14.544;2024-01-30T05:36:19;62.20;;;25.52;;
56181;SDS011;51963;46.052;14.544;2024-01-30T05:38:46;55.88;;;23.63;;
56181;SDS011;51963;46.052;14.544;2024-01-30T05:41:11;48.65;;;22.80;;
56181;SDS011;51963;46.052;14.544;2024-01-30T05:43:37;50.88;;;24.48;;
56181;SDS011;51963;46.052;14.544;2024-01-30T05:46:02;53.03;;;22.33;;
56181;SDS011;51963;46.052;14.544;2024-01-30T05:48:28;54.17;;;22.33;;
56181;SDS011;51963;46.052;14.544;2024-01-30T05:50:54;52.72;;;22.63;;
56181;SDS011;51963;46.052;14.544;2024-01-30T05:53:20;50.15;;;22.77;;
56181;SDS011;51963;46.052;14.544;2024-01-30T05:55:45;51.50;;;22.10;;
56181;SDS011;51963;46.052;14.544;2024-01-30T05:58:12;50.92;;;22.42;;
56181;SDS011;51963;46.052;14.544;2024-01-30T06:00:38;50.33;;;21.73;;
56181;SDS011;51963;46.052;14.544;2024-01-30T06:03:04;48.70;;;21.38;;
56181;SDS011;51963;46.052;14.544;2024-01-30T06:05:30;52.50;;;21.63;;
56181;SDS011;51963;46.052;14.544;2024-01-30T06:07:55;47.17;;;20.85;;
56181;SDS011;51963;46.052;14.544;2024-01-30T06:10:21;50.08;;;22.48;;
56181;SDS011;51963;46.052;14.544;2024-01-30T06:12:46;57.40;;;23.20;;
56181;SDS011;51963;46.052;14.544;2024-01-30T06:15:13;49.75;;;22.23;;
56181;SDS011;51963;46.052;14.544;2024-01-30T06:17:39;55.90;;;23.45;;
56181;SDS011;51963;46.052;14.544;2024-01-30T06:20:05;56.13;;;22.75;;
56181;SDS011;51963;46.052;14.544;2024-01-30T06:22:37;51.80;;;23.42;;
56181;SDS011;51963;46.052;14.544;2024-01-30T06:25:03;50.67;;;23.08;;
56181;SDS011;51963;46.052;14.544;2024-01-30T06:27:29;80.53;;;25.73;;
56181;SDS011;51963;46.052;14.544;2024-01-30T06:29:55;59.63;;;24.65;;
56181;SDS011;51963;46.052;14.544;2024-01-30T06:32:21;56.13;;;25.73;;
56181;SDS011;51963;46.052;14.544;2024-01-30T06:34:46;61.28;;;25.20;;
56181;SDS011;51963;46.052;14.544;2024-01-30T06:37:12;57.60;;;25.17;;
56181;SDS011;51963;46.052;14.544;2024-01-30T06:39:38;52.63;;;24.10;;
56181;SDS011;51963;46.052;14.544;2024-01-30T06:42:04;64.70;;;25.92;;
56181;SDS011;51963;46.052;14.544;2024-01-30T06:44:30;58.97;;;24.23;;
56181;SDS011;51963;46.052;14.544;2024-01-30T06:46:55;56.40;;;24.80;;
56181;SDS011;51963;46.052;14.544;2024-01-30T06:49:21;62.70;;;24.38;;
56181;SDS011;51963;46.052;14.544;2024-01-30T06:51:47;63.97;;;26.08;;
56181;SDS011;51963;46.052;14.544;2024-01-30T06:54:13;63.53;;;25.25;;
56181;SDS011;51963;46.052;14.544;2024-01-30T06:56:38;60.67;;;24.90;;
56181;SDS011;51963;46.052;14.544;2024-01-30T06:59:04;69.65;;;27.58;;
56181;SDS011;51963;46.052;14.544;2024-01-30T07:01:30;65.80;;;25.80;;
56181;SDS011;51963;46.052;14.544;2024-01-30T07:03:56;62.05;;;25.65;;
56181;SDS011;51963;46.052;14.544;2024-01-30T07:06:22;60.90;;;25.58;;
56181;SDS011;51963;46.052;14.544;2024-01-30T07:08:51;62.28;;;25.58;;
56181;SDS011;51963;46.052;14.544;2024-01-30T07:11:20;64.25;;;25.40;;
56181;SDS011;51963;46.052;14.544;2024-01-30T07:13:47;55.38;;;24.33;;
56181;SDS011;51963;46.052;14.544;2024-01-30T07:16:14;69.03;;;26.75;;
56181;SDS011;51963;46.052;14.544;2024-01-30T07:18:40;72.28;;;28.05;;
56181;SDS011;51963;46.052;14.544;2024-01-30T07:21:06;78.28;;;28.05;;
56181;SDS011;51963;46.052;14.544;2024-01-30T07:23:31;81.35;;;29.45;;
56181;SDS011;51963;46.052;14.544;2024-01-30T07:25:59;66.60;;;27.98;;
56181;SDS011;51963;46.052;14.544;2024-01-30T07:28:25;68.75;;;28.55;;
56181;SDS011;51963;46.052;14.544;2024-01-30T07:30:50;67.57;;;28.10;;
56181;SDS011;51963;46.052;14.544;2024-01-30T07:33:16;69.88;;;27.92;;
56181;SDS011;51963;46.052;14.544;2024-01-30T07:35:42;66.88;;;26.88;;
56181;SDS011;51963;46.052;14.544;2024-01-30T07:38:07;65.93;;;26.58;;
56181;SDS011;51963;46.052;14.544;2024-01-30T07:40:33;62.38;;;26.92;;
56181;SDS011;51963;46.052;14.544;2024-01-30T07:42:58;68.50;;;25.55;;
56181;SDS011;51963;46.052;14.544;2024-01-30T07:45:25;67.65;;;27.45;;
56181;SDS011;51963;46.052;14.544;2024-01-30T07:47:52;67.50;;;28.45;;
56181;SDS011;51963;46.052;14.544;2024-01-30T07:50:17;61.40;;;27.30;;
56181;SDS011;51963;46.052;14.544;2024-01-30T07:52:44;60.13;;;26.27;;
56181;SDS011;51963;46.052;14.544;2024-01-30T07:58:15;58.55;;;26.38;;
56181;SDS011;51963;46.052;14.544;2024-01-30T08:00:40;69.20;;;27.45;;
56181;SDS011;51963;46.052;14.544;2024-01-30T08:03:06;68.07;;;27.33;;
56181;SDS011;51963;46.052;14.544;2024-01-30T08:05:32;71.35;;;30.38;;
56181;SDS011;51963;46.052;14.544;2024-01-30T08:07:57;72.18;;;30.17;;
56181;SDS011;51963;46.052;14.544;2024-01-30T08:10:23;71.90;;;29.88;;
56181;SDS011;51963;46.052;14.544;2024-01-30T08:12:49;78.03;;;29.77;;
56181;SDS011;51963;46.052;14.544;2024-01-30T08:15:14;75.10;;;31.15;;
56181;SDS011;51963;46.052;14.544;2024-01-30T08:17:40;67.95;;;30.75;;
56181;SDS011;51963;46.052;14.544;2024-01-30T08:20:06;71.43;;;29.33;;
56181;SDS011;51963;46.052;14.544;2024-01-30T08:22:33;64.13;;;29.67;;
56181;SDS011;51963;46.052;14.544;2024-01-30T08:24:59;72.88;;;32.17;;
56181;SDS011;51963;46.052;14.544;2024-01-30T08:27:25;71.60;;;31.15;;
56181;SDS011;51963;46.052;14.544;2024-01-30T08:29:50;76.93;;;32.13;;
56181;SDS011;51963;46.052;14.544;2024-01-30T08:32:16;77.25;;;32.22;;
56181;SDS011;51963;46.052;14.544;2024-01-30T08:34:42;67.63;;;30.17;;
56181;SDS011;51963;46.052;14.544;2024-01-30T08:37:08;75.85;;;30.73;;
56181;SDS011;51963;46.052;14.544;2024-01-30T08:39:33;69.03;;;30.58;;
56181;SDS011;51963;46.052;14.544;2024-01-30T08:41:59;67.03;;;30.88;;
56181;SDS011;51963;46.052;14.544;2024-01-30T08:44:25;75.28;;;32.25;;
56181;SDS011;51963;46.052;14.544;2024-01-30T08:46:51;73.68;;;32.97;;
56181;SDS011;51963;46.052;14.544;2024-01-30T08:49:20;73.20;;;31.90;;
56181;SDS011;51963;46.052;14.544;2024-01-30T08:51:46;87.32;;;33.38;;
56181;SDS011;51963;46.052;14.544;2024-01-30T08:54:12;82.65;;;32.90;;
56181;SDS011;51963;46.052;14.544;2024-01-30T08:56:38;74.68;;;30.30;;
56181;SDS011;51963;46.052;14.544;2024-01-30T08:59:03;76.60;;;32.92;;
56181;SDS011;51963;46.052;14.544;2024-01-30T09:01:29;67.88;;;29.85;;
56181;SDS011;51963;46.052;14.544;2024-01-30T09:03:55;65.63;;;30.85;;
56181;SDS011;51963;46.052;14.544;2024-01-30T09:06:23;66.80;;;29.83;;
56181;SDS011;51963;46.052;14.544;2024-01-30T09:08:51;70.85;;;29.20;;
56181;SDS011;51963;46.052;14.544;2024-01-30T09:11:18;72.30;;;30.90;;
56181;SDS011;51963;46.052;14.544;2024-01-30T09:13:43;68.40;;;30.90;;
56181;SDS011;51963;46.052;14.544;2024-01-30T09:16:09;71.45;;;31.75;;
56181;SDS011;51963;46.052;14.544;2024-01-30T09:18:34;73.80;;;31.65;;
56181;SDS011;51963;46.052;14.544;2024-01-30T09:21:00;70.00;;;31.17;;
56181;SDS011;51963;46.052;14.544;2024-01-30T09:23:29;65.78;;;32.15;;
56181;SDS011;51963;46.052;14.544;2024-01-30T09:25:55;70.38;;;32.42;;
56181;SDS011;51963;46.052;14.544;2024-01-30T09:28:21;63.58;;;30.58;;
56181;SDS011;51963;46.052;14.544;2024-01-30T09:30:47;66.07;;;30.85;;
56181;SDS011;51963;46.052;14.544;2024-01-30T09:33:13;64.82;;;30.55;;
56181;SDS011;51963;46.052;14.544;2024-01-30T09:35:39;70.05;;;32.25;;
56181;SDS011;51963;46.052;14.544;2024-01-30T09:38:04;65.05;;;29.38;;
56181;SDS011;51963;46.052;14.544;2024-01-30T09:40:30;60.25;;;29.95;;
56181;SDS011;51963;46.052;14.544;2024-01-30T09:42:56;62.17;;;29.88;;
56181;SDS011;51963;46.052;14.544;2024-01-30T09:45:25;61.75;;;30.33;;
56181;SDS011;51963;46.052;14.544;2024-01-30T09:47:51;59.70;;;28.88;;
56181;SDS011;51963;46.052;14.544;2024-01-30T09:50:18;60.35;;;28.08;;
56181;SDS011;51963;46.052;14.544;2024-01-30T09:52:45;51.60;;;25.08;;
56181;SDS011;51963;46.052;14.544;2024-01-30T09:55:11;63.20;;;29.17;;
56181;SDS011;51963;46.052;14.544;2024-01-30T09:57:37;57.60;;;29.23;;
56181;SDS011;51963;46.052;14.544;2024-01-30T10:00:04;57.38;;;29.35;;
56181;SDS011;51963;46.052;14.544;2024-01-30T10:02:38;53.17;;;27.38;;
56181;SDS011;51963;46.052;14.544;2024-01-30T10:05:04;62.60;;;29.90;;
56181;SDS011;51963;46.052;14.544;2024-01-30T10:07:30;58.38;;;29.15;;
56181;SDS011;51963;46.052;14.544;2024-01-30T10:09:56;62.42;;;30.75;;
56181;SDS011;51963;46.052;14.544;2024-01-30T10:12:22;63.13;;;30.88;;
56181;SDS011;51963;46.052;14.544;2024-01-30T10:14:48;56.80;;;30.10;;
56181;SDS011;51963;46.052;14.544;2024-01-30T10:17:14;58.25;;;29.58;;
56181;SDS011;51963;46.052;14.544;2024-01-30T10:19:42;61.90;;;30.30;;
56181;SDS011;51963;46.052;14.544;2024-01-30T10:22:09;59.55;;;30.25;;
56181;SDS011;51963;46.052;14.544;2024-01-30T10:24:34;58.42;;;30.10;;
56181;SDS011;51963;46.052;14.544;2024-01-30T10:27:01;59.60;;;30.50;;
56181;SDS011;51963;46.052;14.544;2024-01-30T10:29:26;58.38;;;29.80;;
56181;SDS011;51963;46.052;14.544;2024-01-30T10:32:02;56.60;;;29.85;;
56181;SDS011;51963;46.052;14.544;2024-01-30T10:34:31;61.17;;;29.73;;
56181;SDS011;51963;46.052;14.544;2024-01-30T10:37:06;55.28;;;30.65;;
56181;SDS011;51963;46.052;14.544;2024-01-30T10:39:38;59.50;;;29.50;;
56181;SDS011;51963;46.052;14.544;2024-01-30T10:42:04;58.60;;;28.63;;
56181;SDS011;51963;46.052;14.544;2024-01-30T10:45:06;62.70;;;30.48;;
56181;SDS011;51963;46.052;14.544;2024-01-30T10:47:43;55.22;;;29.40;;
56181;SDS011;51963;46.052;14.544;2024-01-30T10:50:14;57.55;;;28.40;;
56181;SDS011;51963;46.052;14.544;2024-01-30T10:52:39;53.33;;;27.23;;
56181;SDS011;51963;46.052;14.544;2024-01-30T10:55:07;50.03;;;27.93;;
56181;SDS011;51963;46.052;14.544;2024-01-30T10:57:34;50.75;;;27.75;;
56181;SDS011;51963;46.052;14.544;2024-01-30T11:00:07;49.90;;;27.42;;
56181;SDS011;51963;46.052;14.544;2024-01-30T11:02:38;46.58;;;27.13;;
56181;SDS011;51963;46.052;14.544;2024-01-30T11:05:06;51.25;;;28.15;;
56181;SDS011;51963;46.052;14.544;2024-01-30T11:07:32;47.50;;;27.13;;
56181;SDS011;51963;46.052;14.544;2024-01-30T11:12:24;47.15;;;27.58;;
56181;SDS011;51963;46.052;14.544;2024-01-30T11:17:47;36.92;;;22.33;;
56181;SDS011;51963;46.052;14.544;2024-01-30T11:20:15;33.05;;;17.75;;
56181;SDS011;51963;46.052;14.544;2024-01-30T11:22:46;45.95;;;22.98;;
56181;SDS011;51963;46.052;14.544;2024-01-30T11:25:16;42.03;;;24.08;;
56181;SDS011;51963;46.052;14.544;2024-01-30T11:27:45;37.25;;;22.45;;
56181;SDS011;51963;46.052;14.544;2024-01-30T11:33:04;42.10;;;24.02;;
56181;SDS011;51963;46.052;14.544;2024-01-30T11:35:32;41.90;;;24.67;;
56181;SDS011;51963;46.052;14.544;2024-01-30T11:38:00;43.03;;;24.48;;
56181;SDS011;51963;46.052;14.544;2024-01-30T11:40:30;43.40;;;25.13;;
56181;SDS011;51963;46.052;14.544;2024-01-30T11:42:56;41.75;;;24.33;;
56181;SDS011;51963;46.052;14.544;2024-01-30T11:47:50;46.20;;;26.00;;
56181;SDS011;51963;46.052;14.544;2024-01-30T11:50:16;39.17;;;22.42;;
56181;SDS011;51963;46.052;14.544;2024-01-30T11:52:41;42.35;;;24.85;;
56181;SDS011;51963;46.052;14.544;2024-01-30T11:55:08;40.95;;;23.33;;
56181;SDS011;51963;46.052;14.544;2024-01-30T11:57:35;41.70;;;24.97;;
56181;SDS011;51963;46.052;14.544;2024-01-30T12:00:02;40.55;;;24.10;;
56181;SDS011;51963;46.052;14.544;2024-01-30T12:02:39;42.35;;;23.63;;
56181;SDS011;51963;46.052;14.544;2024-01-30T12:05:05;43.00;;;24.02;;
56181;SDS011;51963;46.052;14.544;2024-01-30T12:07:32;43.72;;;24.92;;
56181;SDS011;51963;46.052;14.544;2024-01-30T12:09:58;46.13;;;25.92;;
56181;SDS011;51963;46.052;14.544;2024-01-30T12:12:24;44.08;;;24.73;;
56181;SDS011;51963;46.052;14.544;2024-01-30T12:14:51;43.13;;;23.93;;
56181;SDS011;51963;46.052;14.544;2024-01-30T12:20:06;38.83;;;23.73;;
56181;SDS011;51963;46.052;14.544;2024-01-30T12:22:35;40.25;;;23.63;;
56181;SDS011;51963;46.052;14.544;2024-01-30T12:25:02;41.22;;;24.60;;
56181;SDS011;51963;46.052;14.544;2024-01-30T12:27:29;44.28;;;24.95;;
56181;SDS011;51963;46.052;14.544;2024-01-30T12:29:56;44.08;;;24.88;;
56181;SDS011;51963;46.052;14.544;2024-01-30T12:32:24;41.42;;;24.20;;
56181;SDS011;51963;46.052;14.544;2024-01-30T12:34:50;42.28;;;23.98;;
56181;SDS011;51963;46.052;14.544;2024-01-30T12:37:19;39.40;;;22.60;;
56181;SDS011;51963;46.052;14.544;2024-01-30T12:39:48;35.13;;;22.67;;
56181;SDS011;51963;46.052;14.544;2024-01-30T12:42:14;43.10;;;21.98;;
56181;SDS011;51963;46.052;14.544;2024-01-30T12:44:40;37.33;;;22.00;;
56181;SDS011;51963;46.052;14.544;2024-01-30T12:47:08;38.83;;;22.23;;
56181;SDS011;51963;46.052;14.544;2024-01-30T12:49:34;36.85;;;21.75;;
56181;SDS011;51963;46.052;14.544;2024-01-30T12:52:00;38.97;;;21.88;;
56181;SDS011;51963;46.052;14.544;2024-01-30T12:54:26;42.42;;;21.80;;
56181;SDS011;51963;46.052;14.544;2024-01-30T12:56:52;37.40;;;22.20;;
56181;SDS011;51963;46.052;14.544;2024-01-30T12:59:18;37.75;;;21.77;;
56181;SDS011;51963;46.052;14.544;2024-01-30T13:01:44;38.90;;;22.38;;
56181;SDS011;51963;46.052;14.544;2024-01-30T13:04:09;34.35;;;20.98;;
56181;SDS011;51963;46.052;14.544;2024-01-30T13:06:35;38.30;;;23.13;;
56181;SDS011;51963;46.052;14.544;2024-01-30T13:09:01;38.15;;;23.05;;
56181;SDS011;51963;46.052;14.544;2024-01-30T13:11:27;38.83;;;22.98;;
56181;SDS011;51963;46.052;14.544;2024-01-30T13:13:52;34.88;;;22.35;;
56181;SDS011;51963;46.052;14.544;2024-01-30T13:16:18;37.92;;;23.48;;
56181;SDS011;51963;46.052;14.544;2024-01-30T13:18:49;41.72;;;23.75;;
56181;SDS011;51963;46.052;14.544;2024-01-30T13:21:18;38.47;;;23.20;;
56181;SDS011;51963;46.052;14.544;2024-01-30T13:23:44;39.72;;;24.15;;
56181;SDS011;51963;46.052;14.544;2024-01-30T13:26:10;39.33;;;22.85;;
56181;SDS011;51963;46.052;14.544;2024-01-30T13:28:36;41.53;;;23.23;;
56181;SDS011;51963;46.052;14.544;2024-01-30T13:31:02;39.58;;;22.52;;
56181;SDS011;51963;46.052;14.544;2024-01-30T13:33:28;40.88;;;22.42;;
56181;SDS011;51963;46.052;14.544;2024-01-30T13:35:54;37.83;;;22.15;;
56181;SDS011;51963;46.052;14.544;2024-01-30T13:38:23;42.58;;;23.85;;
56181;SDS011;51963;46.052;14.544;2024-01-30T13:40:48;37.70;;;22.20;;
56181;SDS011;51963;46.052;14.544;2024-01-30T13:43:19;34.22;;;22.10;;
56181;SDS011;51963;46.052;14.544;2024-01-30T13:45:45;39.97;;;23.10;;
56181;SDS011;51963;46.052;14.544;2024-01-30T13:50:41;40.67;;;22.23;;
56181;SDS011;51963;46.052;14.544;2024-01-30T13:53:12;38.78;;;22.27;;
56181;SDS011;51963;46.052;14.544;2024-01-30T13:55:47;41.47;;;22.40;;
56181;SDS011;51963;46.052;14.544;2024-01-30T13:58:15;38.20;;;23.13;;
56181;SDS011;51963;46.052;14.544;2024-01-30T14:00:41;36.20;;;21.90;;
56181;SDS011;51963;46.052;14.544;2024-01-30T14:03:09;33.33;;;21.73;;
56181;SDS011;51963;46.052;14.544;2024-01-30T14:05:35;33.58;;;21.63;;
56181;SDS011;51963;46.052;14.544;2024-01-30T14:08:01;33.50;;;22.13;;
56181;SDS011;51963;46.052;14.544;2024-01-30T14:10:27;35.30;;;22.27;;
56181;SDS011;51963;46.052;14.544;2024-01-30T14:12:52;37.85;;;22.25;;
56181;SDS011;51963;46.052;14.544;2024-01-30T14:15:18;39.40;;;23.45;;
56181;SDS011;51963;46.052;14.544;2024-01-30T14:17:44;37.42;;;22.40;;
56181;SDS011;51963;46.052;14.544;2024-01-30T14:20:18;36.60;;;22.30;;
56181;SDS011;51963;46.052;14.544;2024-01-30T14:22:47;38.45;;;23.67;;
56181;SDS011;51963;46.052;14.544;2024-01-30T14:25:25;43.60;;;23.10;;
56181;SDS011;51963;46.052;14.544;2024-01-30T14:27:51;41.08;;;24.05;;
56181;SDS011;51963;46.052;14.544;2024-01-30T14:30:17;43.63;;;24.90;;